Terminal Aerodrome Forecast
Issued by NWS

Home | Current Version | Previous Version | Text Only | Print | Product List | Glossary On
Versions: 1 2 3 4 5 6 7 8 9 10 11 12 13
000
FTUS46 KLOX 302324
TAFLGB
TAF
KLGB 302324Z 3100/3124 15009KT P6SM SKC
     FM310100 30008KT P6SM SKC
     FM310500 VRB03KT P6SM SKC
     FM310800 VRB03KT P6SM OVC009
     FM311500 VRB03KT P6SM OVC012
     FM311700 21006KT P6SM FEW015
     FM312300 29007KT P6SM SKC=

USA.gov is the U.S. government's official web portal to all federal, state and local government web resources and services.